N610SF KDMN-KSTS
Flight info
| Callsign | N610SF |
|---|---|
| Flight time | 2h 52m |
| Altitude | 34000 |
| Route | WOBUG ONRTH FLG GCN UTI GBLIN SHUFL MELTS |
| Aircraft | E50P/L-SBDFGRWY/L |
Departure
| Time | 2026-04-24 20:41 |
|---|---|
| Airport | Deming Municipal Airport (KDMN) |
Arrival
| Time | 2026-04-24 23:33 |
|---|---|
| Airport | Charles M. Schulz Sonoma County Airport (KSTS) |
| Time | Latitude | Longitude | Altitude | Speed | Heading |
|---|---|---|---|---|---|
| 2026-04-24 20:27 | 32.26499 | -107.72495 | 4313 ft | 0 kts | 88° |
| 2026-04-24 20:37 | 32.26497 | -107.72487 | 4313 ft | 5 kts | 123° |
| 2026-04-24 20:37 | 32.26454 | -107.72446 | 4311 ft | 11 kts | 103° |
| 2026-04-24 20:37 | 32.26449 | -107.72369 | 4312 ft | 12 kts | 100° |
| 2026-04-24 20:37 | 32.26394 | -107.72350 | 4311 ft | 9 kts | 151° |
| 2026-04-24 20:38 | 32.26386 | -107.72244 | 4311 ft | 19 kts | 90° |
| 2026-04-24 20:38 | 32.26430 | -107.72096 | 4309 ft | 23 kts | 53° |
| 2026-04-24 20:38 | 32.26535 | -107.71943 | 4310 ft | 26 kts | 52° |
| 2026-04-24 20:38 | 32.26650 | -107.71772 | 4308 ft | 20 kts | 51° |
| 2026-04-24 20:39 | 32.26665 | -107.71739 | 4308 ft | 0 kts | 107° |
| 2026-04-24 20:39 | 32.26663 | -107.71734 | 4308 ft | 6 kts | 121° |
| 2026-04-24 20:40 | 32.26627 | -107.71703 | 4309 ft | 4 kts | 169° |
| 2026-04-24 20:40 | 32.26589 | -107.71748 | 4310 ft | 22 kts | 231° |
| 2026-04-24 20:40 | 32.26386 | -107.72047 | 4311 ft | 70 kts | 231° |
| 2026-04-24 20:40 | 32.25991 | -107.72628 | 4325 ft | 108 kts | 231° |
| 2026-04-24 20:41 | 32.25502 | -107.73382 | 4639 ft | 122 kts | 230° |
| 2026-04-24 20:41 | 32.25058 | -107.74220 | 5195 ft | 127 kts | 257° |
| 2026-04-24 20:41 | 32.25423 | -107.75197 | 5552 ft | 153 kts | 320° |
| 2026-04-24 20:41 | 32.26446 | -107.75805 | 5895 ft | 174 kts | 320° |
| 2026-04-24 20:42 | 32.27316 | -107.76848 | 6267 ft | 186 kts | 301° |
| 2026-04-24 20:42 | 32.28002 | -107.78198 | 6625 ft | 198 kts | 291° |
| 2026-04-24 20:42 | 32.28496 | -107.79756 | 6982 ft | 208 kts | 285° |
| 2026-04-24 20:42 | 32.28949 | -107.81428 | 7352 ft | 219 kts | 284° |
| 2026-04-24 20:43 | 32.29440 | -107.83179 | 7712 ft | 229 kts | 286° |
| 2026-04-24 20:43 | 32.29956 | -107.84998 | 8077 ft | 237 kts | 286° |
| 2026-04-24 20:43 | 32.30484 | -107.86873 | 8448 ft | 243 kts | 286° |
| 2026-04-24 20:43 | 32.31027 | -107.88794 | 8822 ft | 249 kts | 286° |
| 2026-04-24 20:44 | 32.31582 | -107.90759 | 9197 ft | 254 kts | 285° |
| 2026-04-24 20:44 | 32.32147 | -107.92756 | 9574 ft | 258 kts | 285° |
| 2026-04-24 20:44 | 32.32717 | -107.94778 | 9947 ft | 261 kts | 286° |
| 2026-04-24 20:44 | 32.33293 | -107.96827 | 10290 ft | 264 kts | 286° |
| 2026-04-24 20:45 | 32.33875 | -107.98893 | 10646 ft | 266 kts | 286° |
| 2026-04-24 20:45 | 32.34462 | -108.00976 | 11000 ft | 268 kts | 286° |
| 2026-04-24 20:45 | 32.35053 | -108.03077 | 11372 ft | 270 kts | 285° |
| 2026-04-24 20:45 | 32.35647 | -108.05194 | 11737 ft | 272 kts | 286° |
| 2026-04-24 20:46 | 32.36243 | -108.07318 | 12124 ft | 272 kts | 285° |
| 2026-04-24 20:46 | 32.36840 | -108.09444 | 12514 ft | 273 kts | 285° |
| 2026-04-24 20:46 | 32.37438 | -108.11574 | 12907 ft | 273 kts | 285° |
| 2026-04-24 20:46 | 32.38035 | -108.13705 | 13308 ft | 273 kts | 285° |
| 2026-04-24 20:47 | 32.38631 | -108.15836 | 13704 ft | 273 kts | 285° |
| 2026-04-24 20:47 | 32.39228 | -108.17970 | 14065 ft | 273 kts | 285° |
| 2026-04-24 20:47 | 32.39826 | -108.20107 | 14422 ft | 274 kts | 285° |
| 2026-04-24 20:47 | 32.40423 | -108.22248 | 14779 ft | 274 kts | 285° |
| 2026-04-24 20:48 | 32.41023 | -108.24393 | 15141 ft | 275 kts | 285° |
| 2026-04-24 20:48 | 32.41621 | -108.26542 | 15502 ft | 276 kts | 285° |
| 2026-04-24 20:48 | 32.42225 | -108.28705 | 15868 ft | 277 kts | 285° |
| 2026-04-24 20:48 | 32.42827 | -108.30873 | 16245 ft | 278 kts | 285° |
| 2026-04-24 20:49 | 32.43435 | -108.33052 | 16618 ft | 279 kts | 285° |
| 2026-04-24 20:49 | 32.44040 | -108.35228 | 16993 ft | 281 kts | 285° |
| 2026-04-24 20:49 | 32.44655 | -108.37443 | 17375 ft | 283 kts | 285° |
| 2026-04-24 20:49 | 32.45254 | -108.39605 | 17751 ft | 284 kts | 285° |
| 2026-04-24 20:50 | 32.45841 | -108.41714 | 18115 ft | 285 kts | 285° |
| 2026-04-24 20:50 | 32.46461 | -108.43948 | 18474 ft | 286 kts | 285° |
| 2026-04-24 20:50 | 32.47081 | -108.46189 | 18821 ft | 286 kts | 285° |
| 2026-04-24 20:50 | 32.47694 | -108.48400 | 19175 ft | 286 kts | 285° |
| 2026-04-24 20:51 | 32.48313 | -108.50641 | 19533 ft | 286 kts | 285° |
| 2026-04-24 20:51 | 32.48934 | -108.52888 | 19896 ft | 287 kts | 285° |
| 2026-04-24 20:51 | 32.49555 | -108.55138 | 20261 ft | 287 kts | 285° |
| 2026-04-24 20:51 | 32.50177 | -108.57389 | 20630 ft | 288 kts | 285° |
| 2026-04-24 20:52 | 32.50798 | -108.59643 | 21001 ft | 288 kts | 285° |
| 2026-04-24 20:52 | 32.51420 | -108.61896 | 21378 ft | 288 kts | 285° |
| 2026-04-24 20:52 | 32.52039 | -108.64150 | 21756 ft | 288 kts | 285° |
| 2026-04-24 20:52 | 32.52659 | -108.66400 | 22140 ft | 287 kts | 285° |
| 2026-04-24 20:53 | 32.53277 | -108.68651 | 22530 ft | 287 kts | 285° |
| 2026-04-24 20:53 | 32.53895 | -108.70896 | 22917 ft | 286 kts | 285° |
| 2026-04-24 20:53 | 32.54509 | -108.73138 | 23317 ft | 286 kts | 285° |
| 2026-04-24 20:53 | 32.55123 | -108.75374 | 23674 ft | 285 kts | 285° |
| 2026-04-24 20:54 | 32.55734 | -108.77607 | 24003 ft | 285 kts | 284° |
| 2026-04-24 20:54 | 32.56344 | -108.79834 | 24344 ft | 284 kts | 285° |
| 2026-04-24 20:54 | 32.56953 | -108.82061 | 24673 ft | 283 kts | 284° |
| 2026-04-24 20:54 | 32.57561 | -108.84285 | 25016 ft | 283 kts | 284° |
| 2026-04-24 20:55 | 32.58167 | -108.86503 | 25361 ft | 283 kts | 284° |
| 2026-04-24 20:55 | 32.58794 | -108.88717 | 25711 ft | 284 kts | 287° |
| 2026-04-24 20:55 | 32.59665 | -108.90827 | 26059 ft | 287 kts | 294° |
| 2026-04-24 20:55 | 32.60723 | -108.92843 | 26415 ft | 288 kts | 296° |
| 2026-04-24 20:56 | 32.61769 | -108.94862 | 26775 ft | 287 kts | 296° |
| 2026-04-24 20:56 | 32.62813 | -108.96883 | 27150 ft | 287 kts | 296° |
| 2026-04-24 20:56 | 32.63860 | -108.98894 | 27530 ft | 287 kts | 296° |
| 2026-04-24 20:56 | 32.64893 | -109.00878 | 27909 ft | 286 kts | 296° |
| 2026-04-24 20:57 | 32.65935 | -109.02881 | 28312 ft | 285 kts | 296° |
| 2026-04-24 20:57 | 32.66971 | -109.04877 | 28710 ft | 283 kts | 296° |
| 2026-04-24 20:57 | 32.68002 | -109.06862 | 29111 ft | 282 kts | 296° |
| 2026-04-24 20:57 | 32.69027 | -109.08839 | 29522 ft | 280 kts | 295° |
| 2026-04-24 20:58 | 32.70044 | -109.10800 | 29932 ft | 278 kts | 295° |
| 2026-04-24 20:58 | 32.71053 | -109.12745 | 30283 ft | 276 kts | 295° |
| 2026-04-24 20:58 | 32.72054 | -109.14679 | 30642 ft | 273 kts | 295° |
| 2026-04-24 20:58 | 32.73043 | -109.16588 | 30967 ft | 271 kts | 295° |
| 2026-04-24 20:59 | 32.74032 | -109.18504 | 31204 ft | 272 kts | 295° |
| 2026-04-24 20:59 | 32.75022 | -109.20415 | 31457 ft | 272 kts | 295° |
| 2026-04-24 20:59 | 32.76013 | -109.22336 | 31697 ft | 272 kts | 295° |
| 2026-04-24 20:59 | 32.77005 | -109.24254 | 31958 ft | 272 kts | 295° |
| 2026-04-24 21:00 | 32.77995 | -109.26173 | 32215 ft | 272 kts | 295° |
| 2026-04-24 21:00 | 32.78987 | -109.28093 | 32479 ft | 272 kts | 295° |
| 2026-04-24 21:00 | 32.79976 | -109.30010 | 32741 ft | 272 kts | 295° |
| 2026-04-24 21:00 | 32.80963 | -109.31926 | 33005 ft | 271 kts | 295° |
| 2026-04-24 21:01 | 32.81934 | -109.33809 | 33278 ft | 271 kts | 295° |
| 2026-04-24 21:01 | 32.82918 | -109.35722 | 33546 ft | 271 kts | 295° |
| 2026-04-24 21:01 | 32.83916 | -109.37658 | 33823 ft | 271 kts | 295° |
| 2026-04-24 21:01 | 32.84897 | -109.39568 | 33860 ft | 278 kts | 295° |
| 2026-04-24 21:02 | 32.85914 | -109.41551 | 33868 ft | 284 kts | 295° |
| 2026-04-24 21:02 | 32.86958 | -109.43580 | 33881 ft | 290 kts | 295° |
| 2026-04-24 21:02 | 32.88016 | -109.45640 | 33886 ft | 294 kts | 295° |
| 2026-04-24 21:02 | 32.89093 | -109.47735 | 33890 ft | 298 kts | 295° |
| 2026-04-24 21:03 | 32.91277 | -109.51992 | 33903 ft | 304 kts | 295° |
| 2026-04-24 21:03 | 32.93497 | -109.56325 | 33914 ft | 309 kts | 295° |
| 2026-04-24 21:04 | 32.95742 | -109.60713 | 33909 ft | 311 kts | 295° |
| 2026-04-24 21:04 | 32.98002 | -109.65134 | 33895 ft | 314 kts | 295° |
| 2026-04-24 21:05 | 33.00276 | -109.69586 | 33893 ft | 316 kts | 295° |
| 2026-04-24 21:05 | 33.02567 | -109.74081 | 33878 ft | 318 kts | 295° |
| 2026-04-24 21:06 | 33.04864 | -109.78592 | 33873 ft | 319 kts | 295° |
| 2026-04-24 21:06 | 33.07163 | -109.83108 | 33858 ft | 318 kts | 295° |
| 2026-04-24 21:07 | 33.09462 | -109.87639 | 33846 ft | 320 kts | 295° |
| 2026-04-24 21:07 | 33.11773 | -109.92190 | 33836 ft | 321 kts | 295° |
| 2026-04-24 21:08 | 33.14085 | -109.96755 | 33839 ft | 322 kts | 295° |
| 2026-04-24 21:08 | 33.16399 | -110.01325 | 33842 ft | 322 kts | 295° |
| 2026-04-24 21:09 | 33.18712 | -110.05901 | 33838 ft | 322 kts | 295° |
| 2026-04-24 21:09 | 33.21023 | -110.10480 | 33837 ft | 322 kts | 295° |
| 2026-04-24 21:10 | 33.23318 | -110.15030 | 33838 ft | 322 kts | 295° |
| 2026-04-24 21:10 | 33.25626 | -110.19614 | 33840 ft | 322 kts | 295° |
| 2026-04-24 21:11 | 33.27932 | -110.24197 | 33836 ft | 322 kts | 295° |
| 2026-04-24 21:11 | 33.30234 | -110.28780 | 33838 ft | 322 kts | 295° |
| 2026-04-24 21:12 | 33.32148 | -110.32597 | 33835 ft | 322 kts | 295° |
| 2026-04-24 21:12 | 33.34837 | -110.37963 | 33834 ft | 322 kts | 295° |
| 2026-04-24 21:13 | 33.37137 | -110.42559 | 33833 ft | 322 kts | 295° |
| 2026-04-24 21:13 | 33.39438 | -110.47161 | 33835 ft | 322 kts | 295° |
| 2026-04-24 21:14 | 33.41732 | -110.51757 | 33841 ft | 322 kts | 295° |
| 2026-04-24 21:14 | 33.44026 | -110.56350 | 33835 ft | 322 kts | 295° |
| 2026-04-24 21:15 | 33.46847 | -110.60538 | 33843 ft | 331 kts | 307° |
| 2026-04-24 21:15 | 33.50532 | -110.63989 | 33841 ft | 344 kts | 318° |
| 2026-04-24 21:16 | 33.54814 | -110.66669 | 33842 ft | 347 kts | 322° |
| 2026-04-24 21:16 | 33.59096 | -110.69331 | 33849 ft | 347 kts | 322° |
| 2026-04-24 21:17 | 33.63394 | -110.71978 | 33848 ft | 347 kts | 322° |
| 2026-04-24 21:17 | 33.66964 | -110.74189 | 33844 ft | 347 kts | 322° |
| 2026-04-24 21:18 | 33.71976 | -110.77286 | 33852 ft | 347 kts | 322° |
| 2026-04-24 21:18 | 33.76249 | -110.79938 | 33852 ft | 348 kts | 322° |
| 2026-04-24 21:19 | 33.80552 | -110.82606 | 33856 ft | 348 kts | 322° |
| 2026-04-24 21:19 | 33.84868 | -110.85288 | 33859 ft | 349 kts | 322° |
| 2026-04-24 21:20 | 33.91361 | -110.89325 | 33864 ft | 351 kts | 322° |
| 2026-04-24 21:21 | 33.95697 | -110.92025 | 33866 ft | 351 kts | 321° |
| 2026-04-24 21:21 | 34.00022 | -110.94724 | 33872 ft | 349 kts | 321° |
| 2026-04-24 21:22 | 34.04336 | -110.97416 | 33871 ft | 349 kts | 322° |
| 2026-04-24 21:22 | 34.08645 | -111.00110 | 33895 ft | 348 kts | 321° |
| 2026-04-24 21:23 | 34.12923 | -111.02787 | 33915 ft | 349 kts | 321° |
| 2026-04-24 21:23 | 34.17233 | -111.05486 | 33942 ft | 348 kts | 321° |
| 2026-04-24 21:24 | 34.21519 | -111.08174 | 33961 ft | 345 kts | 321° |
| 2026-04-24 21:24 | 34.25794 | -111.10861 | 33976 ft | 347 kts | 321° |
| 2026-04-24 21:25 | 34.29361 | -111.13102 | 33987 ft | 348 kts | 321° |
| 2026-04-24 21:25 | 34.33667 | -111.15812 | 33991 ft | 349 kts | 321° |
| 2026-04-24 21:26 | 34.37986 | -111.18533 | 33981 ft | 351 kts | 321° |
| 2026-04-24 21:26 | 34.42326 | -111.21271 | 33967 ft | 352 kts | 321° |
| 2026-04-24 21:27 | 34.46667 | -111.24011 | 33956 ft | 352 kts | 321° |
| 2026-04-24 21:27 | 34.51011 | -111.26758 | 33931 ft | 352 kts | 321° |
| 2026-04-24 21:28 | 34.55362 | -111.29512 | 33919 ft | 353 kts | 321° |
| 2026-04-24 21:28 | 34.59709 | -111.32267 | 33893 ft | 353 kts | 321° |
| 2026-04-24 21:29 | 34.64038 | -111.35013 | 33882 ft | 353 kts | 321° |
| 2026-04-24 21:29 | 34.68215 | -111.37666 | 33886 ft | 353 kts | 321° |
| 2026-04-24 21:30 | 34.72572 | -111.40437 | 33887 ft | 353 kts | 321° |
| 2026-04-24 21:30 | 34.76928 | -111.43212 | 33893 ft | 353 kts | 321° |
| 2026-04-24 21:31 | 34.81286 | -111.45989 | 33905 ft | 354 kts | 321° |
| 2026-04-24 21:31 | 34.85643 | -111.48770 | 33913 ft | 353 kts | 321° |
| 2026-04-24 21:32 | 34.89996 | -111.51552 | 33919 ft | 353 kts | 321° |
| 2026-04-24 21:32 | 34.94356 | -111.54342 | 33957 ft | 354 kts | 321° |
| 2026-04-24 21:33 | 34.98721 | -111.57137 | 33984 ft | 355 kts | 321° |
| 2026-04-24 21:33 | 35.03087 | -111.59937 | 34017 ft | 354 kts | 320° |
| 2026-04-24 21:34 | 35.07447 | -111.62738 | 34039 ft | 354 kts | 320° |
| 2026-04-24 21:34 | 35.11812 | -111.65543 | 34039 ft | 354 kts | 320° |
| 2026-04-24 21:35 | 35.16218 | -111.68285 | 34036 ft | 358 kts | 323° |
| 2026-04-24 21:35 | 35.20718 | -111.70854 | 34042 ft | 357 kts | 322° |
| 2026-04-24 21:36 | 35.25177 | -111.73427 | 34013 ft | 357 kts | 322° |
| 2026-04-24 21:36 | 35.29661 | -111.76005 | 33986 ft | 356 kts | 322° |
| 2026-04-24 21:37 | 35.34146 | -111.78593 | 33957 ft | 356 kts | 322° |
| 2026-04-24 21:37 | 35.38634 | -111.81183 | 33929 ft | 356 kts | 322° |
| 2026-04-24 21:38 | 35.43111 | -111.83769 | 33897 ft | 355 kts | 321° |
| 2026-04-24 21:38 | 35.47580 | -111.86358 | 33901 ft | 355 kts | 321° |
| 2026-04-24 21:39 | 35.52046 | -111.88944 | 33896 ft | 355 kts | 321° |
| 2026-04-24 21:39 | 35.56509 | -111.91533 | 33881 ft | 355 kts | 321° |
| 2026-04-24 21:40 | 35.60969 | -111.94124 | 33877 ft | 354 kts | 321° |
| 2026-04-24 21:40 | 35.65422 | -111.96714 | 33890 ft | 354 kts | 321° |
| 2026-04-24 21:41 | 35.69876 | -111.99307 | 33911 ft | 354 kts | 321° |
| 2026-04-24 21:41 | 35.74328 | -112.01903 | 33936 ft | 354 kts | 321° |
| 2026-04-24 21:42 | 35.78778 | -112.04501 | 33962 ft | 354 kts | 321° |
| 2026-04-24 21:42 | 35.83232 | -112.07103 | 33983 ft | 354 kts | 321° |
| 2026-04-24 21:43 | 35.87687 | -112.09710 | 34010 ft | 354 kts | 321° |
| 2026-04-24 21:43 | 35.92108 | -112.12300 | 34010 ft | 354 kts | 321° |
| 2026-04-24 21:44 | 35.96251 | -112.15314 | 34008 ft | 337 kts | 310° |
| 2026-04-24 21:44 | 35.99611 | -112.19153 | 34005 ft | 325 kts | 302° |
| 2026-04-24 21:45 | 36.02769 | -112.23168 | 34000 ft | 326 kts | 302° |
| 2026-04-24 21:45 | 36.05916 | -112.27183 | 33980 ft | 325 kts | 302° |
| 2026-04-24 21:46 | 36.09063 | -112.31200 | 33956 ft | 325 kts | 302° |
| 2026-04-24 21:46 | 36.12209 | -112.35218 | 33929 ft | 324 kts | 301° |
| 2026-04-24 21:47 | 36.15324 | -112.39208 | 33914 ft | 323 kts | 302° |
| 2026-04-24 21:47 | 36.18449 | -112.43209 | 33885 ft | 323 kts | 302° |
| 2026-04-24 21:48 | 36.21577 | -112.47222 | 33860 ft | 324 kts | 302° |
| 2026-04-24 21:48 | 36.24689 | -112.51217 | 33860 ft | 323 kts | 302° |
| 2026-04-24 21:49 | 36.27811 | -112.55224 | 33851 ft | 320 kts | 302° |
| 2026-04-24 21:49 | 36.30860 | -112.59157 | 33856 ft | 316 kts | 301° |
| 2026-04-24 21:50 | 36.33935 | -112.63125 | 33852 ft | 321 kts | 301° |
| 2026-04-24 21:50 | 36.37039 | -112.67122 | 33833 ft | 320 kts | 301° |
| 2026-04-24 21:51 | 36.40135 | -112.71127 | 33831 ft | 322 kts | 301° |
| 2026-04-24 21:51 | 36.43243 | -112.75144 | 33841 ft | 323 kts | 301° |
| 2026-04-24 21:52 | 36.46354 | -112.79174 | 33834 ft | 323 kts | 302° |
| 2026-04-24 21:52 | 36.49471 | -112.83216 | 33835 ft | 324 kts | 301° |
| 2026-04-24 21:53 | 36.52588 | -112.87263 | 33837 ft | 324 kts | 301° |
| 2026-04-24 21:53 | 36.55706 | -112.91317 | 33832 ft | 324 kts | 302° |
| 2026-04-24 21:54 | 36.58810 | -112.95358 | 33830 ft | 325 kts | 302° |
| 2026-04-24 21:54 | 36.61935 | -112.99431 | 33841 ft | 326 kts | 302° |
| 2026-04-24 21:55 | 36.65069 | -113.03520 | 33859 ft | 326 kts | 302° |
| 2026-04-24 21:55 | 36.68208 | -113.07621 | 33874 ft | 327 kts | 302° |
| 2026-04-24 21:56 | 36.71355 | -113.11739 | 33883 ft | 329 kts | 302° |
| 2026-04-24 21:56 | 36.74514 | -113.15876 | 33889 ft | 330 kts | 302° |
| 2026-04-24 21:57 | 36.77677 | -113.20023 | 33891 ft | 331 kts | 302° |
| 2026-04-24 21:57 | 36.80852 | -113.24193 | 33893 ft | 332 kts | 303° |
| 2026-04-24 21:58 | 36.84036 | -113.28380 | 33890 ft | 333 kts | 303° |
| 2026-04-24 21:58 | 36.87210 | -113.32558 | 33851 ft | 334 kts | 303° |
| 2026-04-24 21:59 | 36.90412 | -113.36782 | 33855 ft | 336 kts | 303° |
| 2026-04-24 21:59 | 36.93626 | -113.41021 | 33873 ft | 336 kts | 303° |
| 2026-04-24 22:00 | 36.96837 | -113.45270 | 33877 ft | 337 kts | 303° |
| 2026-04-24 22:00 | 36.99973 | -113.49603 | 33873 ft | 331 kts | 298° |
| 2026-04-24 22:01 | 37.02281 | -113.54474 | 33859 ft | 321 kts | 287° |
| 2026-04-24 22:01 | 37.03709 | -113.59707 | 33861 ft | 317 kts | 281° |
| 2026-04-24 22:02 | 37.05026 | -113.64993 | 33857 ft | 319 kts | 281° |
| 2026-04-24 22:02 | 37.06327 | -113.70305 | 33849 ft | 319 kts | 281° |
| 2026-04-24 22:03 | 37.07633 | -113.75620 | 33837 ft | 320 kts | 281° |
| 2026-04-24 22:03 | 37.08937 | -113.80945 | 33828 ft | 321 kts | 281° |
| 2026-04-24 22:04 | 37.10246 | -113.86302 | 33823 ft | 322 kts | 281° |
| 2026-04-24 22:04 | 37.11559 | -113.91688 | 33813 ft | 324 kts | 281° |
| 2026-04-24 22:05 | 37.12868 | -113.97067 | 33806 ft | 326 kts | 281° |
| 2026-04-24 22:05 | 37.14188 | -114.02508 | 33801 ft | 327 kts | 282° |
| 2026-04-24 22:06 | 37.15508 | -114.07957 | 33798 ft | 327 kts | 282° |
| 2026-04-24 22:06 | 37.16827 | -114.13413 | 33803 ft | 327 kts | 282° |
| 2026-04-24 22:07 | 37.18145 | -114.18881 | 33803 ft | 328 kts | 282° |
| 2026-04-24 22:07 | 37.19463 | -114.24363 | 33799 ft | 329 kts | 282° |
| 2026-04-24 22:08 | 37.20783 | -114.29859 | 33793 ft | 329 kts | 282° |
| 2026-04-24 22:08 | 37.22101 | -114.35365 | 33796 ft | 330 kts | 282° |
| 2026-04-24 22:09 | 37.23421 | -114.40888 | 33795 ft | 331 kts | 282° |
| 2026-04-24 22:09 | 37.24742 | -114.46428 | 33793 ft | 332 kts | 282° |
| 2026-04-24 22:10 | 37.26060 | -114.51970 | 33790 ft | 331 kts | 282° |
| 2026-04-24 22:10 | 37.27374 | -114.57507 | 33793 ft | 331 kts | 282° |
| 2026-04-24 22:11 | 37.28463 | -114.62112 | 33790 ft | 331 kts | 282° |
| 2026-04-24 22:11 | 37.29772 | -114.67653 | 33783 ft | 331 kts | 282° |
| 2026-04-24 22:12 | 37.31081 | -114.73196 | 33777 ft | 331 kts | 282° |
| 2026-04-24 22:12 | 37.32223 | -114.78772 | 33779 ft | 328 kts | 277° |
| 2026-04-24 22:13 | 37.33208 | -114.84398 | 33775 ft | 330 kts | 278° |
| 2026-04-24 22:13 | 37.34178 | -114.90047 | 33769 ft | 331 kts | 278° |
| 2026-04-24 22:14 | 37.35152 | -114.95704 | 33768 ft | 331 kts | 278° |
| 2026-04-24 22:14 | 37.36125 | -115.01375 | 33767 ft | 332 kts | 278° |
| 2026-04-24 22:15 | 37.37096 | -115.07052 | 33767 ft | 332 kts | 278° |
| 2026-04-24 22:15 | 37.38060 | -115.12706 | 33768 ft | 333 kts | 278° |
| 2026-04-24 22:16 | 37.39035 | -115.18445 | 33767 ft | 334 kts | 278° |
| 2026-04-24 22:16 | 37.39995 | -115.24108 | 33768 ft | 333 kts | 278° |
| 2026-04-24 22:17 | 37.40957 | -115.29805 | 33770 ft | 332 kts | 278° |
| 2026-04-24 22:17 | 37.41916 | -115.35502 | 33767 ft | 333 kts | 278° |
| 2026-04-24 22:18 | 37.42873 | -115.41205 | 33773 ft | 334 kts | 278° |
| 2026-04-24 22:18 | 37.43832 | -115.46927 | 33775 ft | 334 kts | 278° |
| 2026-04-24 22:19 | 37.44787 | -115.52653 | 33776 ft | 334 kts | 278° |
| 2026-04-24 22:19 | 37.45741 | -115.58392 | 33779 ft | 334 kts | 278° |
| 2026-04-24 22:20 | 37.46683 | -115.64077 | 33774 ft | 334 kts | 278° |
| 2026-04-24 22:20 | 37.47628 | -115.69794 | 33776 ft | 333 kts | 278° |
| 2026-04-24 22:21 | 37.48565 | -115.75489 | 33782 ft | 332 kts | 278° |
| 2026-04-24 22:21 | 37.49503 | -115.81197 | 33784 ft | 334 kts | 278° |
| 2026-04-24 22:22 | 37.50441 | -115.86928 | 33786 ft | 335 kts | 278° |
| 2026-04-24 22:22 | 37.51378 | -115.92671 | 33789 ft | 335 kts | 278° |
| 2026-04-24 22:23 | 37.52314 | -115.98420 | 33793 ft | 335 kts | 278° |
| 2026-04-24 22:23 | 37.53244 | -116.04161 | 33791 ft | 334 kts | 279° |
| 2026-04-24 22:24 | 37.54168 | -116.09883 | 33803 ft | 333 kts | 278° |
| 2026-04-24 22:24 | 37.55092 | -116.15617 | 33802 ft | 335 kts | 278° |
| 2026-04-24 22:25 | 37.56015 | -116.21368 | 33801 ft | 335 kts | 278° |
| 2026-04-24 22:25 | 37.56936 | -116.27128 | 33804 ft | 335 kts | 278° |
| 2026-04-24 22:26 | 37.57855 | -116.32888 | 33809 ft | 335 kts | 278° |
| 2026-04-24 22:26 | 37.58766 | -116.38620 | 33806 ft | 336 kts | 278° |
| 2026-04-24 22:27 | 37.59683 | -116.44407 | 33813 ft | 336 kts | 278° |
| 2026-04-24 22:27 | 37.60596 | -116.50189 | 33809 ft | 336 kts | 278° |
| 2026-04-24 22:28 | 37.61504 | -116.55961 | 33811 ft | 335 kts | 278° |
| 2026-04-24 22:28 | 37.62410 | -116.61735 | 33811 ft | 336 kts | 278° |
| 2026-04-24 22:29 | 37.63765 | -116.70405 | 33811 ft | 335 kts | 278° |
| 2026-04-24 22:29 | 37.64662 | -116.76176 | 33813 ft | 335 kts | 278° |
| 2026-04-24 22:30 | 37.65558 | -116.81952 | 33816 ft | 336 kts | 278° |
| 2026-04-24 22:30 | 37.66452 | -116.87738 | 33815 ft | 336 kts | 278° |
| 2026-04-24 22:31 | 37.67339 | -116.93503 | 33817 ft | 336 kts | 278° |
| 2026-04-24 22:31 | 37.68229 | -116.99303 | 33815 ft | 336 kts | 278° |
| 2026-04-24 22:32 | 37.69115 | -117.05096 | 33817 ft | 336 kts | 278° |
| 2026-04-24 22:32 | 37.69996 | -117.10880 | 33817 ft | 335 kts | 278° |
| 2026-04-24 22:33 | 37.70874 | -117.16664 | 33815 ft | 335 kts | 278° |
| 2026-04-24 22:33 | 37.71750 | -117.22448 | 33815 ft | 336 kts | 278° |
| 2026-04-24 22:34 | 37.72624 | -117.28243 | 33809 ft | 336 kts | 278° |
| 2026-04-24 22:34 | 37.73495 | -117.34038 | 33808 ft | 336 kts | 278° |
| 2026-04-24 22:35 | 37.74364 | -117.39840 | 33808 ft | 336 kts | 278° |
| 2026-04-24 22:35 | 37.75229 | -117.45640 | 33804 ft | 336 kts | 278° |
| 2026-04-24 22:36 | 37.76092 | -117.51443 | 33805 ft | 336 kts | 278° |
| 2026-04-24 22:36 | 37.76946 | -117.57199 | 33800 ft | 335 kts | 278° |
| 2026-04-24 22:37 | 37.77800 | -117.62986 | 33804 ft | 335 kts | 278° |
| 2026-04-24 22:37 | 37.78653 | -117.68767 | 33805 ft | 334 kts | 278° |
| 2026-04-24 22:38 | 37.79506 | -117.74534 | 33807 ft | 334 kts | 278° |
| 2026-04-24 22:38 | 37.80355 | -117.80307 | 33800 ft | 334 kts | 278° |
| 2026-04-24 22:39 | 37.81202 | -117.86085 | 33811 ft | 334 kts | 278° |
| 2026-04-24 22:39 | 37.82047 | -117.91862 | 33817 ft | 334 kts | 278° |
| 2026-04-24 22:40 | 37.82887 | -117.97639 | 33818 ft | 334 kts | 278° |
| 2026-04-24 22:40 | 37.83726 | -118.03422 | 33817 ft | 334 kts | 278° |
| 2026-04-24 22:41 | 37.84560 | -118.09192 | 33818 ft | 333 kts | 278° |
| 2026-04-24 22:41 | 37.85390 | -118.14960 | 33816 ft | 333 kts | 278° |
| 2026-04-24 22:42 | 37.86217 | -118.20719 | 33813 ft | 332 kts | 278° |
| 2026-04-24 22:42 | 37.87034 | -118.26430 | 33819 ft | 332 kts | 278° |
| 2026-04-24 22:43 | 37.87850 | -118.32166 | 33820 ft | 331 kts | 278° |
| 2026-04-24 22:43 | 37.88665 | -118.37905 | 33811 ft | 332 kts | 278° |
| 2026-04-24 22:44 | 37.89481 | -118.43664 | 33822 ft | 333 kts | 278° |
| 2026-04-24 22:44 | 37.90292 | -118.49425 | 33815 ft | 332 kts | 278° |
| 2026-04-24 22:45 | 37.91102 | -118.55196 | 33819 ft | 332 kts | 278° |
| 2026-04-24 22:45 | 37.91908 | -118.60956 | 33827 ft | 332 kts | 278° |
| 2026-04-24 22:46 | 37.92710 | -118.66717 | 33836 ft | 332 kts | 278° |
| 2026-04-24 22:46 | 37.93509 | -118.72470 | 33846 ft | 331 kts | 278° |
| 2026-04-24 22:47 | 37.94304 | -118.78220 | 33856 ft | 331 kts | 278° |
| 2026-04-24 22:47 | 37.95095 | -118.83962 | 33853 ft | 331 kts | 278° |
| 2026-04-24 22:48 | 37.95885 | -118.89714 | 33852 ft | 332 kts | 278° |
| 2026-04-24 22:48 | 37.96667 | -118.95438 | 33849 ft | 332 kts | 278° |
| 2026-04-24 22:49 | 37.97453 | -119.01200 | 33852 ft | 332 kts | 278° |
| 2026-04-24 22:49 | 37.98235 | -119.06963 | 33860 ft | 331 kts | 278° |
| 2026-04-24 22:50 | 37.99013 | -119.12718 | 33875 ft | 331 kts | 278° |
| 2026-04-24 22:50 | 37.99790 | -119.18465 | 33883 ft | 330 kts | 278° |
| 2026-04-24 22:51 | 38.00554 | -119.24194 | 33896 ft | 330 kts | 278° |
| 2026-04-24 22:51 | 38.01323 | -119.29928 | 33895 ft | 329 kts | 278° |
| 2026-04-24 22:52 | 38.02086 | -119.35660 | 33919 ft | 331 kts | 278° |
| 2026-04-24 22:52 | 38.02850 | -119.41410 | 33914 ft | 331 kts | 278° |
| 2026-04-24 22:53 | 38.03603 | -119.47122 | 33931 ft | 331 kts | 278° |
| 2026-04-24 22:53 | 38.04361 | -119.52882 | 33934 ft | 331 kts | 278° |
| 2026-04-24 22:54 | 38.05119 | -119.58657 | 33942 ft | 332 kts | 278° |
| 2026-04-24 22:54 | 38.05873 | -119.64432 | 33942 ft | 332 kts | 278° |
| 2026-04-24 22:55 | 38.06625 | -119.70206 | 33943 ft | 332 kts | 278° |
| 2026-04-24 22:55 | 38.07372 | -119.75974 | 33952 ft | 331 kts | 278° |
| 2026-04-24 22:56 | 38.08115 | -119.81736 | 33948 ft | 331 kts | 278° |
| 2026-04-24 22:56 | 38.08857 | -119.87504 | 33947 ft | 331 kts | 278° |
| 2026-04-24 22:57 | 38.09596 | -119.93277 | 33947 ft | 331 kts | 278° |
| 2026-04-24 22:57 | 38.10331 | -119.99052 | 33948 ft | 332 kts | 278° |
| 2026-04-24 22:58 | 38.11067 | -120.04832 | 33943 ft | 332 kts | 278° |
| 2026-04-24 22:58 | 38.11798 | -120.10617 | 33940 ft | 332 kts | 278° |
| 2026-04-24 22:59 | 38.12522 | -120.16366 | 33942 ft | 332 kts | 278° |
| 2026-04-24 23:00 | 38.13609 | -120.25050 | 33947 ft | 332 kts | 278° |
| 2026-04-24 23:00 | 38.14332 | -120.30843 | 33950 ft | 332 kts | 278° |
| 2026-04-24 23:01 | 38.14934 | -120.35691 | 33946 ft | 332 kts | 278° |
| 2026-04-24 23:01 | 38.15650 | -120.41477 | 33949 ft | 331 kts | 278° |
| 2026-04-24 23:02 | 38.16363 | -120.47262 | 33950 ft | 332 kts | 278° |
| 2026-04-24 23:02 | 38.16754 | -120.50146 | 33656 ft | 331 kts | 280° |
| 2026-04-24 23:02 | 38.17215 | -120.52969 | 33220 ft | 331 kts | 280° |
| 2026-04-24 23:02 | 38.17668 | -120.55830 | 32822 ft | 330 kts | 280° |
| 2026-04-24 23:03 | 38.18114 | -120.58694 | 32421 ft | 330 kts | 280° |
| 2026-04-24 23:03 | 38.18567 | -120.61561 | 32018 ft | 331 kts | 280° |
| 2026-04-24 23:03 | 38.19020 | -120.64440 | 31621 ft | 333 kts | 280° |
| 2026-04-24 23:03 | 38.19474 | -120.67327 | 31216 ft | 334 kts | 281° |
| 2026-04-24 23:04 | 38.19930 | -120.70235 | 30809 ft | 336 kts | 281° |
| 2026-04-24 23:04 | 38.20386 | -120.73151 | 30401 ft | 337 kts | 281° |
| 2026-04-24 23:04 | 38.20844 | -120.76081 | 29985 ft | 339 kts | 281° |
| 2026-04-24 23:04 | 38.21304 | -120.79023 | 29535 ft | 339 kts | 281° |
| 2026-04-24 23:05 | 38.21762 | -120.81971 | 29127 ft | 339 kts | 281° |
| 2026-04-24 23:05 | 38.22220 | -120.84913 | 28723 ft | 340 kts | 281° |
| 2026-04-24 23:05 | 38.22678 | -120.87865 | 28310 ft | 340 kts | 281° |
| 2026-04-24 23:05 | 38.23137 | -120.90825 | 27897 ft | 341 kts | 281° |
| 2026-04-24 23:06 | 38.23596 | -120.93791 | 27480 ft | 342 kts | 281° |
| 2026-04-24 23:06 | 38.24055 | -120.96770 | 27060 ft | 344 kts | 281° |
| 2026-04-24 23:06 | 38.24516 | -120.99758 | 26643 ft | 345 kts | 281° |
| 2026-04-24 23:06 | 38.24979 | -121.02766 | 26219 ft | 347 kts | 281° |
| 2026-04-24 23:07 | 38.25443 | -121.05789 | 25795 ft | 349 kts | 281° |
| 2026-04-24 23:07 | 38.25909 | -121.08827 | 25370 ft | 351 kts | 281° |
| 2026-04-24 23:07 | 38.26376 | -121.11879 | 24944 ft | 353 kts | 281° |
| 2026-04-24 23:07 | 38.26845 | -121.14955 | 24507 ft | 355 kts | 281° |
| 2026-04-24 23:08 | 38.27311 | -121.18004 | 24076 ft | 357 kts | 281° |
| 2026-04-24 23:08 | 38.27784 | -121.21117 | 23642 ft | 359 kts | 281° |
| 2026-04-24 23:08 | 38.28260 | -121.24244 | 23172 ft | 361 kts | 281° |
| 2026-04-24 23:08 | 38.28735 | -121.27382 | 22724 ft | 361 kts | 281° |
| 2026-04-24 23:09 | 38.29210 | -121.30517 | 22285 ft | 360 kts | 281° |
| 2026-04-24 23:09 | 38.29682 | -121.33649 | 21855 ft | 360 kts | 281° |
| 2026-04-24 23:09 | 38.30155 | -121.36781 | 21415 ft | 360 kts | 281° |
| 2026-04-24 23:09 | 38.30627 | -121.39918 | 20980 ft | 361 kts | 281° |
| 2026-04-24 23:10 | 38.31097 | -121.43052 | 20541 ft | 361 kts | 281° |
| 2026-04-24 23:10 | 38.31567 | -121.46188 | 20104 ft | 361 kts | 281° |
| 2026-04-24 23:10 | 38.32035 | -121.49316 | 19669 ft | 358 kts | 281° |
| 2026-04-24 23:10 | 38.32499 | -121.52423 | 19236 ft | 356 kts | 282° |
| 2026-04-24 23:11 | 38.32960 | -121.55515 | 18805 ft | 354 kts | 281° |
| 2026-04-24 23:11 | 38.33416 | -121.58584 | 18375 ft | 351 kts | 282° |
| 2026-04-24 23:11 | 38.33868 | -121.61626 | 17923 ft | 348 kts | 282° |
| 2026-04-24 23:11 | 38.34315 | -121.64641 | 17494 ft | 344 kts | 282° |
| 2026-04-24 23:12 | 38.34756 | -121.67616 | 17079 ft | 339 kts | 282° |
| 2026-04-24 23:12 | 38.35188 | -121.70549 | 16670 ft | 335 kts | 282° |
| 2026-04-24 23:12 | 38.35614 | -121.73443 | 16259 ft | 330 kts | 282° |
| 2026-04-24 23:12 | 38.36034 | -121.76301 | 15868 ft | 326 kts | 282° |
| 2026-04-24 23:13 | 38.36451 | -121.79125 | 15476 ft | 322 kts | 282° |
| 2026-04-24 23:13 | 38.36859 | -121.81910 | 15085 ft | 318 kts | 282° |
| 2026-04-24 23:13 | 38.37260 | -121.84660 | 14706 ft | 314 kts | 282° |
| 2026-04-24 23:13 | 38.37659 | -121.87382 | 14325 ft | 311 kts | 282° |
| 2026-04-24 23:14 | 38.38052 | -121.90078 | 13955 ft | 308 kts | 282° |
| 2026-04-24 23:14 | 38.38443 | -121.92758 | 13559 ft | 306 kts | 282° |
| 2026-04-24 23:14 | 38.38826 | -121.95397 | 13179 ft | 304 kts | 282° |
| 2026-04-24 23:14 | 38.39202 | -121.97994 | 12844 ft | 300 kts | 282° |
| 2026-04-24 23:15 | 38.39579 | -122.00589 | 12505 ft | 297 kts | 282° |
| 2026-04-24 23:15 | 38.39952 | -122.03168 | 12149 ft | 295 kts | 282° |
| 2026-04-24 23:15 | 38.40322 | -122.05730 | 11797 ft | 294 kts | 282° |
| 2026-04-24 23:15 | 38.40708 | -122.08286 | 11435 ft | 291 kts | 285° |
| 2026-04-24 23:16 | 38.41588 | -122.10568 | 11055 ft | 287 kts | 309° |
| 2026-04-24 23:16 | 38.42899 | -122.12475 | 10714 ft | 286 kts | 314° |
| 2026-04-24 23:16 | 38.44154 | -122.14442 | 10352 ft | 286 kts | 308° |
| 2026-04-24 23:16 | 38.45253 | -122.16567 | 10008 ft | 287 kts | 304° |
| 2026-04-24 23:17 | 38.46313 | -122.18665 | 10002 ft | 274 kts | 306° |
| 2026-04-24 23:17 | 38.47377 | -122.20626 | 9992 ft | 263 kts | 307° |
| 2026-04-24 23:17 | 38.48402 | -122.22509 | 9996 ft | 254 kts | 307° |
| 2026-04-24 23:17 | 38.49388 | -122.24353 | 9986 ft | 249 kts | 307° |
| 2026-04-24 23:18 | 38.50355 | -122.26166 | 9984 ft | 245 kts | 307° |
| 2026-04-24 23:18 | 38.51311 | -122.27954 | 9982 ft | 243 kts | 307° |
| 2026-04-24 23:18 | 38.52260 | -122.29730 | 9977 ft | 241 kts | 307° |
| 2026-04-24 23:18 | 38.53199 | -122.31486 | 9978 ft | 238 kts | 307° |
| 2026-04-24 23:19 | 38.54117 | -122.33207 | 9977 ft | 237 kts | 307° |
| 2026-04-24 23:19 | 38.55044 | -122.34943 | 9983 ft | 237 kts | 307° |
| 2026-04-24 23:19 | 38.55974 | -122.36688 | 9979 ft | 238 kts | 307° |
| 2026-04-24 23:19 | 38.56907 | -122.38436 | 9979 ft | 238 kts | 307° |
| 2026-04-24 23:20 | 38.57836 | -122.40179 | 9983 ft | 237 kts | 307° |
| 2026-04-24 23:20 | 38.58763 | -122.41924 | 9982 ft | 237 kts | 307° |
| 2026-04-24 23:20 | 38.59689 | -122.43664 | 9985 ft | 236 kts | 307° |
| 2026-04-24 23:20 | 38.60613 | -122.45400 | 9987 ft | 236 kts | 307° |
| 2026-04-24 23:21 | 38.61535 | -122.47134 | 9984 ft | 236 kts | 307° |
| 2026-04-24 23:21 | 38.62462 | -122.48878 | 9986 ft | 237 kts | 307° |
| 2026-04-24 23:21 | 38.63391 | -122.50629 | 9988 ft | 238 kts | 307° |
| 2026-04-24 23:21 | 38.64323 | -122.52389 | 9987 ft | 239 kts | 307° |
| 2026-04-24 23:22 | 38.65258 | -122.54148 | 9986 ft | 239 kts | 307° |
| 2026-04-24 23:22 | 38.66191 | -122.55906 | 9995 ft | 238 kts | 307° |
| 2026-04-24 23:22 | 38.67115 | -122.57654 | 9992 ft | 237 kts | 307° |
| 2026-04-24 23:22 | 38.68040 | -122.59401 | 9994 ft | 240 kts | 307° |
| 2026-04-24 23:23 | 38.69012 | -122.61227 | 9995 ft | 255 kts | 306° |
| 2026-04-24 23:23 | 38.70017 | -122.63125 | 9999 ft | 266 kts | 307° |
| 2026-04-24 23:23 | 38.71064 | -122.65111 | 10002 ft | 272 kts | 306° |
| 2026-04-24 23:23 | 38.72133 | -122.67140 | 10003 ft | 277 kts | 306° |
| 2026-04-24 23:24 | 38.73222 | -122.69201 | 9949 ft | 283 kts | 306° |
| 2026-04-24 23:24 | 38.74346 | -122.71326 | 9635 ft | 294 kts | 306° |
| 2026-04-24 23:24 | 38.75505 | -122.73524 | 9238 ft | 300 kts | 306° |
| 2026-04-24 23:24 | 38.76669 | -122.75740 | 8838 ft | 298 kts | 306° |
| 2026-04-24 23:25 | 38.77825 | -122.77934 | 8442 ft | 296 kts | 306° |
| 2026-04-24 23:25 | 38.78975 | -122.80119 | 8049 ft | 294 kts | 305° |
| 2026-04-24 23:25 | 38.80117 | -122.82290 | 7662 ft | 293 kts | 306° |
| 2026-04-24 23:25 | 38.81202 | -122.84498 | 7267 ft | 293 kts | 297° |
| 2026-04-24 23:26 | 38.81729 | -122.87022 | 6866 ft | 296 kts | 277° |
| 2026-04-24 23:26 | 38.81617 | -122.89641 | 6486 ft | 296 kts | 258° |
| 2026-04-24 23:26 | 38.80863 | -122.92067 | 5882 ft | 291 kts | 239° |
| 2026-04-24 23:26 | 38.79595 | -122.94000 | 5487 ft | 277 kts | 222° |
| 2026-04-24 23:27 | 38.78010 | -122.95291 | 5193 ft | 265 kts | 205° |
| 2026-04-24 23:27 | 38.76274 | -122.95918 | 4932 ft | 256 kts | 188° |
| 2026-04-24 23:27 | 38.74517 | -122.95903 | 4677 ft | 251 kts | 172° |
| 2026-04-24 23:27 | 38.72807 | -122.95548 | 4431 ft | 247 kts | 172° |
| 2026-04-24 23:28 | 38.71125 | -122.95247 | 4190 ft | 241 kts | 173° |
| 2026-04-24 23:28 | 38.69496 | -122.94942 | 3953 ft | 232 kts | 172° |
| 2026-04-24 23:28 | 38.67940 | -122.94640 | 3729 ft | 220 kts | 172° |
| 2026-04-24 23:28 | 38.66467 | -122.94358 | 3520 ft | 209 kts | 172° |
| 2026-04-24 23:29 | 38.65081 | -122.93997 | 3278 ft | 198 kts | 161° |
| 2026-04-24 23:29 | 38.63938 | -122.93104 | 3030 ft | 186 kts | 142° |
| 2026-04-24 23:29 | 38.62956 | -122.92099 | 2798 ft | 178 kts | 144° |
| 2026-04-24 23:29 | 38.61989 | -122.91179 | 2554 ft | 172 kts | 144° |
| 2026-04-24 23:30 | 38.61063 | -122.90259 | 2334 ft | 166 kts | 143° |
| 2026-04-24 23:30 | 38.60181 | -122.89371 | 2115 ft | 156 kts | 145° |
| 2026-04-24 23:30 | 38.59338 | -122.88541 | 1907 ft | 151 kts | 144° |
| 2026-04-24 23:30 | 38.58522 | -122.87728 | 1709 ft | 148 kts | 144° |
| 2026-04-24 23:31 | 38.57729 | -122.86950 | 1526 ft | 138 kts | 144° |
| 2026-04-24 23:31 | 38.57013 | -122.86238 | 1349 ft | 124 kts | 144° |
| 2026-04-24 23:31 | 38.56360 | -122.85592 | 1198 ft | 115 kts | 143° |
| 2026-04-24 23:31 | 38.55750 | -122.84988 | 1046 ft | 107 kts | 144° |
| 2026-04-24 23:32 | 38.55197 | -122.84444 | 919 ft | 95 kts | 146° |
| 2026-04-24 23:32 | 38.54682 | -122.83929 | 794 ft | 101 kts | 147° |
| 2026-04-24 23:32 | 38.54124 | -122.83356 | 685 ft | 105 kts | 143° |
| 2026-04-24 23:32 | 38.53552 | -122.82740 | 551 ft | 108 kts | 143° |
| 2026-04-24 23:33 | 38.52980 | -122.82128 | 413 ft | 108 kts | 146° |
| 2026-04-24 23:33 | 38.52555 | -122.81820 | 313 ft | 105 kts | 155° |
| 2026-04-24 23:33 | 38.51674 | -122.81341 | 127 ft | 102 kts | 159° |
| 2026-04-24 23:33 | 38.51145 | -122.81060 | 119 ft | 46 kts | 157° |
| 2026-04-24 23:34 | 38.50886 | -122.80919 | 120 ft | 38 kts | 158° |
| 2026-04-24 23:34 | 38.50729 | -122.80763 | 121 ft | 19 kts | 88° |
| 2026-04-24 23:34 | 38.50731 | -122.80715 | 122 ft | 0 kts | 84° |
| 2026-04-24 23:35 | 38.50733 | -122.80640 | 122 ft | 4 kts | 72° |
| 2026-04-24 23:35 | 38.50786 | -122.80631 | 119 ft | 13 kts | 344° |
| 2026-04-24 23:36 | 38.50864 | -122.80665 | 121 ft | 3 kts | 27° |
| 2026-04-24 23:36 | 38.50870 | -122.80601 | 121 ft | 10 kts | 90° |
| 2026-04-24 23:36 | 38.50887 | -122.80570 | 121 ft | 7 kts | 0° |
| 2026-04-24 23:36 | 38.50906 | -122.80569 | 121 ft | 0 kts | 1° |